sensor_id;sensor_type;location;lat;lon;timestamp;pressure;altitude;pressure_sealevel;temperature;humidity
9740;BME280;4909;42.680;26.324;2022-09-20T00:01:40;98338.22;;;15.86;54.13
9740;BME280;4909;42.680;26.324;2022-09-20T00:04:08;98323.56;;;15.91;54.24
9740;BME280;4909;42.680;26.324;2022-09-20T00:06:35;98320.47;;;15.97;54.88
9740;BME280;4909;42.680;26.324;2022-09-20T00:09:04;98305.78;;;15.90;54.50
9740;BME280;4909;42.680;26.324;2022-09-20T00:11:32;98302.44;;;15.99;55.05
9740;BME280;4909;42.680;26.324;2022-09-20T00:14:01;98276.97;;;16.06;54.48
9740;BME280;4909;42.680;26.324;2022-09-20T00:16:29;98294.28;;;16.14;53.72
9740;BME280;4909;42.680;26.324;2022-09-20T00:18:58;98312.59;;;16.20;53.86
9740;BME280;4909;42.680;26.324;2022-09-20T00:21:27;98308.81;;;16.22;52.84
9740;BME280;4909;42.680;26.324;2022-09-20T00:23:55;98313.97;;;16.13;52.84
9740;BME280;4909;42.680;26.324;2022-09-20T00:26:24;98292.84;;;15.97;52.94
9740;BME280;4909;42.680;26.324;2022-09-20T00:28:52;98291.75;;;15.99;54.31
9740;BME280;4909;42.680;26.324;2022-09-20T00:31:19;98314.06;;;16.24;54.11
9740;BME280;4909;42.680;26.324;2022-09-20T00:33:46;98322.53;;;16.18;53.83
9740;BME280;4909;42.680;26.324;2022-09-20T00:36:30;98313.44;;;16.07;53.62
9740;BME280;4909;42.680;26.324;2022-09-20T00:38:58;98329.91;;;16.27;53.91
9740;BME280;4909;42.680;26.324;2022-09-20T00:41:28;98329.19;;;16.25;53.65
9740;BME280;4909;42.680;26.324;2022-09-20T00:43:55;98326.06;;;16.31;54.82
9740;BME280;4909;42.680;26.324;2022-09-20T00:46:25;98320.81;;;16.29;54.61
9740;BME280;4909;42.680;26.324;2022-09-20T00:48:57;98323.38;;;16.31;54.15
9740;BME280;4909;42.680;26.324;2022-09-20T00:51:28;98273.53;;;16.04;54.92
9740;BME280;4909;42.680;26.324;2022-09-20T00:53:58;98333.34;;;16.29;54.91
9740;BME280;4909;42.680;26.324;2022-09-20T00:56:31;98316.13;;;16.20;54.48
9740;BME280;4909;42.680;26.324;2022-09-20T00:59:03;98329.59;;;16.19;55.39
9740;BME280;4909;42.680;26.324;2022-09-20T01:01:32;98327.75;;;16.32;55.63
9740;BME280;4909;42.680;26.324;2022-09-20T01:04:00;98324.44;;;16.28;56.52
9740;BME280;4909;42.680;26.324;2022-09-20T01:06:27;98321.22;;;16.36;55.66
9740;BME280;4909;42.680;26.324;2022-09-20T01:08:56;98325.94;;;16.32;55.59
9740;BME280;4909;42.680;26.324;2022-09-20T01:11:29;98326.41;;;16.26;55.00
9740;BME280;4909;42.680;26.324;2022-09-20T01:13:56;98327.03;;;16.30;55.08
9740;BME280;4909;42.680;26.324;2022-09-20T01:16:23;98326.41;;;16.26;55.20
9740;BME280;4909;42.680;26.324;2022-09-20T01:18:52;98330.56;;;16.18;55.60
9740;BME280;4909;42.680;26.324;2022-09-20T01:21:20;98333.34;;;16.29;57.17
9740;BME280;4909;42.680;26.324;2022-09-20T01:23:51;98323.06;;;16.23;55.45
9740;BME280;4909;42.680;26.324;2022-09-20T01:26:36;98333.72;;;16.12;56.18
9740;BME280;4909;42.680;26.324;2022-09-20T01:29:15;98337.16;;;16.01;56.85
9740;BME280;4909;42.680;26.324;2022-09-20T01:31:46;98351.06;;;16.06;57.16
9740;BME280;4909;42.680;26.324;2022-09-20T01:34:20;98346.03;;;16.01;57.29
9740;BME280;4909;42.680;26.324;2022-09-20T01:36:53;98345.28;;;15.99;57.28
9740;BME280;4909;42.680;26.324;2022-09-20T01:39:31;98336.63;;;15.96;58.34
9740;BME280;4909;42.680;26.324;2022-09-20T01:42:04;98337.03;;;16.02;57.11
9740;BME280;4909;42.680;26.324;2022-09-20T01:44:37;98335.31;;;16.01;57.47
9740;BME280;4909;42.680;26.324;2022-09-20T01:47:15;98333.72;;;15.99;57.13
9740;BME280;4909;42.680;26.324;2022-09-20T01:49:55;98332.09;;;16.09;57.16
9740;BME280;4909;42.680;26.324;2022-09-20T02:02:05;98330.53;;;15.81;57.87
9740;BME280;4909;42.680;26.324;2022-09-20T02:11:03;98336.41;;;15.74;58.41
9740;BME280;4909;42.680;26.324;2022-09-20T02:13:43;98339.50;;;15.55;58.55
9740;BME280;4909;42.680;26.324;2022-09-20T02:16:30;98332.56;;;15.52;59.27
9740;BME280;4909;42.680;26.324;2022-09-20T02:19:32;98325.78;;;15.47;59.39
9740;BME280;4909;42.680;26.324;2022-09-20T02:22:18;98324.28;;;15.43;59.75
9740;BME280;4909;42.680;26.324;2022-09-20T02:24:54;98336.91;;;15.41;60.98
9740;BME280;4909;42.680;26.324;2022-09-20T02:27:30;98314.41;;;15.31;60.45
9740;BME280;4909;42.680;26.324;2022-09-20T02:30:13;98323.09;;;15.47;60.76
9740;BME280;4909;42.680;26.324;2022-09-20T02:32:58;98327.91;;;15.42;59.92
9740;BME280;4909;42.680;26.324;2022-09-20T02:35:40;98326.56;;;15.61;60.74
9740;BME280;4909;42.680;26.324;2022-09-20T02:38:24;98319.19;;;15.52;60.44
9740;BME280;4909;42.680;26.324;2022-09-20T02:41:07;98329.78;;;15.54;60.95
9740;BME280;4909;42.680;26.324;2022-09-20T02:43:45;98337.19;;;15.63;59.88
9740;BME280;4909;42.680;26.324;2022-09-20T02:46:20;98330.50;;;15.69;59.56
9740;BME280;4909;42.680;26.324;2022-09-20T02:48:55;98341.75;;;15.86;59.90
9740;BME280;4909;42.680;26.324;2022-09-20T02:51:33;98346.66;;;16.05;60.50
9740;BME280;4909;42.680;26.324;2022-09-20T02:54:13;98328.56;;;16.08;59.66
9740;BME280;4909;42.680;26.324;2022-09-20T02:56:49;98345.25;;;16.12;58.04
9740;BME280;4909;42.680;26.324;2022-09-20T02:59:25;98349.00;;;16.09;58.32
9740;BME280;4909;42.680;26.324;2022-09-20T03:02:03;98343.34;;;16.01;59.15
9740;BME280;4909;42.680;26.324;2022-09-20T03:04:38;98334.38;;;15.90;58.09
9740;BME280;4909;42.680;26.324;2022-09-20T03:07:19;98345.41;;;15.85;58.45
9740;BME280;4909;42.680;26.324;2022-09-20T03:09:54;98347.97;;;15.74;58.45
9740;BME280;4909;42.680;26.324;2022-09-20T03:12:34;98350.22;;;15.80;59.37
9740;BME280;4909;42.680;26.324;2022-09-20T03:15:15;98347.53;;;15.80;58.90
9740;BME280;4909;42.680;26.324;2022-09-20T03:17:48;98360.28;;;15.77;59.95
9740;BME280;4909;42.680;26.324;2022-09-20T03:20:25;98352.78;;;15.82;62.37
9740;BME280;4909;42.680;26.324;2022-09-20T03:23:00;98362.94;;;15.89;58.51
9740;BME280;4909;42.680;26.324;2022-09-20T03:25:40;98366.72;;;15.87;61.19
9740;BME280;4909;42.680;26.324;2022-09-20T03:28:25;98364.56;;;15.79;59.20
9740;BME280;4909;42.680;26.324;2022-09-20T03:31:06;98351.63;;;15.73;59.63
9740;BME280;4909;42.680;26.324;2022-09-20T03:33:45;98361.97;;;15.52;59.65
9740;BME280;4909;42.680;26.324;2022-09-20T03:36:27;98359.69;;;15.34;61.39
9740;BME280;4909;42.680;26.324;2022-09-20T03:39:31;98377.41;;;15.35;59.23
9740;BME280;4909;42.680;26.324;2022-09-20T03:42:12;98372.63;;;15.40;61.03
9740;BME280;4909;42.680;26.324;2022-09-20T03:44:53;98381.63;;;15.39;59.76
9740;BME280;4909;42.680;26.324;2022-09-20T03:47:39;98368.03;;;15.29;60.02
9740;BME280;4909;42.680;26.324;2022-09-20T03:50:23;98378.91;;;15.26;61.21
9740;BME280;4909;42.680;26.324;2022-09-20T03:53:19;98387.28;;;15.34;59.83
9740;BME280;4909;42.680;26.324;2022-09-20T03:59:00;98381.97;;;15.07;59.08
9740;BME280;4909;42.680;26.324;2022-09-20T04:01:42;98374.72;;;15.09;59.03
9740;BME280;4909;42.680;26.324;2022-09-20T04:04:18;98372.47;;;15.16;57.66
9740;BME280;4909;42.680;26.324;2022-09-20T04:07:09;98366.13;;;15.04;57.90
9740;BME280;4909;42.680;26.324;2022-09-20T04:10:10;98382.06;;;15.06;59.02
9740;BME280;4909;42.680;26.324;2022-09-20T04:12:52;98365.22;;;14.91;58.19
9740;BME280;4909;42.680;26.324;2022-09-20T04:15:31;98382.56;;;14.98;57.94
9740;BME280;4909;42.680;26.324;2022-09-20T04:18:06;98380.16;;;15.08;57.60
9740;BME280;4909;42.680;26.324;2022-09-20T04:20:43;98369.97;;;15.00;57.56
9740;BME280;4909;42.680;26.324;2022-09-20T04:23:29;98380.75;;;14.99;56.28
9740;BME280;4909;42.680;26.324;2022-09-20T04:26:00;98402.84;;;14.88;57.02
9740;BME280;4909;42.680;26.324;2022-09-20T04:28:34;98384.69;;;14.93;57.52
9740;BME280;4909;42.680;26.324;2022-09-20T04:31:11;98386.97;;;14.99;56.36
9740;BME280;4909;42.680;26.324;2022-09-20T04:33:44;98392.09;;;15.02;56.74
9740;BME280;4909;42.680;26.324;2022-09-20T04:36:25;98400.63;;;14.95;55.90
9740;BME280;4909;42.680;26.324;2022-09-20T04:39:04;98398.69;;;14.97;55.53
9740;BME280;4909;42.680;26.324;2022-09-20T04:45:11;98413.75;;;14.85;54.23
9740;BME280;4909;42.680;26.324;2022-09-20T04:48:15;98409.19;;;14.73;53.92
9740;BME280;4909;42.680;26.324;2022-09-20T04:51:05;98411.09;;;14.71;54.41
9740;BME280;4909;42.680;26.324;2022-09-20T04:53:47;98409.69;;;14.92;54.18
9740;BME280;4909;42.680;26.324;2022-09-20T04:56:27;98396.16;;;14.95;52.49
9740;BME280;4909;42.680;26.324;2022-09-20T04:59:05;98380.91;;;15.10;53.51
9740;BME280;4909;42.680;26.324;2022-09-20T05:02:08;98383.03;;;15.05;50.74
9740;BME280;4909;42.680;26.324;2022-09-20T05:05:25;98412.56;;;15.16;50.63
9740;BME280;4909;42.680;26.324;2022-09-20T05:14:18;98408.06;;;15.16;49.44
9740;BME280;4909;42.680;26.324;2022-09-20T05:17:05;98403.34;;;15.07;52.16
9740;BME280;4909;42.680;26.324;2022-09-20T05:19:42;98419.28;;;15.09;50.88
9740;BME280;4909;42.680;26.324;2022-09-20T05:22:31;98428.41;;;14.92;50.78
9740;BME280;4909;42.680;26.324;2022-09-20T05:25:25;98428.88;;;14.99;51.48
9740;BME280;4909;42.680;26.324;2022-09-20T05:28:00;98428.03;;;15.11;52.08
9740;BME280;4909;42.680;26.324;2022-09-20T05:30:33;98428.50;;;15.17;52.12
9740;BME280;4909;42.680;26.324;2022-09-20T05:33:12;98427.00;;;15.13;50.45
9740;BME280;4909;42.680;26.324;2022-09-20T05:35:44;98426.28;;;15.24;52.45
9740;BME280;4909;42.680;26.324;2022-09-20T05:38:21;98425.88;;;15.30;52.57
9740;BME280;4909;42.680;26.324;2022-09-20T05:41:05;98424.97;;;15.44;52.38
9740;BME280;4909;42.680;26.324;2022-09-20T05:43:41;98396.38;;;15.44;51.24
9740;BME280;4909;42.680;26.324;2022-09-20T05:46:16;98443.50;;;15.59;50.74
9740;BME280;4909;42.680;26.324;2022-09-20T05:49:01;98432.31;;;15.67;50.45
9740;BME280;4909;42.680;26.324;2022-09-20T05:51:44;98433.13;;;15.55;50.03
9740;BME280;4909;42.680;26.324;2022-09-20T05:57:36;98441.50;;;15.63;51.76
9740;BME280;4909;42.680;26.324;2022-09-20T06:00:09;98434.34;;;15.89;51.35
9740;BME280;4909;42.680;26.324;2022-09-20T06:02:46;98396.97;;;15.75;50.19
9740;BME280;4909;42.680;26.324;2022-09-20T06:05:28;98434.56;;;15.98;50.90
9740;BME280;4909;42.680;26.324;2022-09-20T06:10:59;98440.78;;;16.24;51.70
9740;BME280;4909;42.680;26.324;2022-09-20T06:13:49;98384.59;;;16.12;49.18
9740;BME280;4909;42.680;26.324;2022-09-20T06:16:32;98431.13;;;16.60;49.48
9740;BME280;4909;42.680;26.324;2022-09-20T06:19:05;98442.09;;;16.93;48.65
9740;BME280;4909;42.680;26.324;2022-09-20T06:21:45;98435.53;;;16.97;48.05
9740;BME280;4909;42.680;26.324;2022-09-20T06:27:03;98455.94;;;16.87;47.39
9740;BME280;4909;42.680;26.324;2022-09-20T06:29:35;98396.25;;;16.72;48.35
9740;BME280;4909;42.680;26.324;2022-09-20T06:32:04;98448.50;;;17.03;47.32
9740;BME280;4909;42.680;26.324;2022-09-20T06:34:31;98446.44;;;17.07;46.49
9740;BME280;4909;42.680;26.324;2022-09-20T06:37:07;98459.56;;;17.22;46.24
9740;BME280;4909;42.680;26.324;2022-09-20T06:39:57;98451.63;;;17.21;45.56
9740;BME280;4909;42.680;26.324;2022-09-20T06:42:44;98458.47;;;17.25;46.35
9740;BME280;4909;42.680;26.324;2022-09-20T06:45:11;98463.63;;;17.52;46.59
9740;BME280;4909;42.680;26.324;2022-09-20T06:47:38;98457.28;;;17.88;44.93
9740;BME280;4909;42.680;26.324;2022-09-20T06:50:05;98458.28;;;17.98;44.84
9740;BME280;4909;42.680;26.324;2022-09-20T06:52:33;98448.06;;;18.03;43.68
9740;BME280;4909;42.680;26.324;2022-09-20T06:55:00;98444.63;;;17.90;43.72
9740;BME280;4909;42.680;26.324;2022-09-20T06:57:33;98457.34;;;18.10;44.46
9740;BME280;4909;42.680;26.324;2022-09-20T07:00:03;98446.97;;;18.05;42.26
9740;BME280;4909;42.680;26.324;2022-09-20T07:02:29;98471.75;;;18.09;43.12
9740;BME280;4909;42.680;26.324;2022-09-20T07:04:56;98461.66;;;18.35;42.50
9740;BME280;4909;42.680;26.324;2022-09-20T07:07:23;98478.63;;;18.46;43.32
9740;BME280;4909;42.680;26.324;2022-09-20T07:09:52;98466.22;;;18.56;43.32
9740;BME280;4909;42.680;26.324;2022-09-20T07:12:18;98488.97;;;18.63;42.10
9740;BME280;4909;42.680;26.324;2022-09-20T07:14:45;98493.34;;;18.53;41.58
9740;BME280;4909;42.680;26.324;2022-09-20T07:17:12;98488.19;;;18.39;42.43
9740;BME280;4909;42.680;26.324;2022-09-20T07:19:39;98499.63;;;18.41;43.22
9740;BME280;4909;42.680;26.324;2022-09-20T07:22:05;98505.69;;;18.56;43.29
9740;BME280;4909;42.680;26.324;2022-09-20T07:24:32;98514.78;;;18.42;41.70
9740;BME280;4909;42.680;26.324;2022-09-20T07:27:02;98520.75;;;18.23;43.12
9740;BME280;4909;42.680;26.324;2022-09-20T07:29:29;98515.03;;;18.28;42.20
9740;BME280;4909;42.680;26.324;2022-09-20T07:31:57;98522.22;;;18.28;42.55
9740;BME280;4909;42.680;26.324;2022-09-20T07:34:23;98521.72;;;18.22;42.15
9740;BME280;4909;42.680;26.324;2022-09-20T07:36:51;98511.34;;;18.40;42.10
9740;BME280;4909;42.680;26.324;2022-09-20T07:39:18;98501.72;;;18.38;42.85
9740;BME280;4909;42.680;26.324;2022-09-20T07:41:45;98517.41;;;18.66;42.04
9740;BME280;4909;42.680;26.324;2022-09-20T07:44:14;98509.97;;;18.92;41.26
9740;BME280;4909;42.680;26.324;2022-09-20T07:46:49;98517.03;;;18.93;40.18
9740;BME280;4909;42.680;26.324;2022-09-20T07:49:16;98523.00;;;19.30;40.61
9740;BME280;4909;42.680;26.324;2022-09-20T07:51:43;98524.31;;;19.46;38.90
9740;BME280;4909;42.680;26.324;2022-09-20T07:54:10;98517.06;;;19.90;39.29
9740;BME280;4909;42.680;26.324;2022-09-20T07:56:37;98521.50;;;20.74;37.97
9740;BME280;4909;42.680;26.324;2022-09-20T07:59:04;98529.28;;;21.28;36.56
9740;BME280;4909;42.680;26.324;2022-09-20T08:01:32;98522.50;;;21.53;34.25
9740;BME280;4909;42.680;26.324;2022-09-20T08:03:59;98533.50;;;21.80;34.78
9740;BME280;4909;42.680;26.324;2022-09-20T08:06:26;98536.19;;;21.90;33.99
9740;BME280;4909;42.680;26.324;2022-09-20T08:08:54;98529.25;;;22.26;33.57
9740;BME280;4909;42.680;26.324;2022-09-20T08:11:22;98536.63;;;22.43;33.12
9740;BME280;4909;42.680;26.324;2022-09-20T08:13:54;98535.72;;;22.62;32.38
9740;BME280;4909;42.680;26.324;2022-09-20T08:16:22;98551.09;;;22.80;31.60
9740;BME280;4909;42.680;26.324;2022-09-20T08:18:51;98546.69;;;22.70;31.58
9740;BME280;4909;42.680;26.324;2022-09-20T08:21:20;98548.81;;;22.76;32.02
9740;BME280;4909;42.680;26.324;2022-09-20T08:23:47;98536.81;;;23.25;30.71
9740;BME280;4909;42.680;26.324;2022-09-20T08:26:15;98539.78;;;23.59;31.74
9740;BME280;4909;42.680;26.324;2022-09-20T08:28:43;98538.59;;;23.71;30.32
9740;BME280;4909;42.680;26.324;2022-09-20T08:31:13;98532.16;;;24.07;29.78
9740;BME280;4909;42.680;26.324;2022-09-20T08:33:41;98546.72;;;24.06;29.90
9740;BME280;4909;42.680;26.324;2022-09-20T08:36:11;98537.69;;;23.43;30.00
9740;BME280;4909;42.680;26.324;2022-09-20T08:38:38;98532.88;;;23.10;30.98
9740;BME280;4909;42.680;26.324;2022-09-20T08:41:10;98537.25;;;23.75;30.77
9740;BME280;4909;42.680;26.324;2022-09-20T08:43:40;98537.41;;;23.73;29.72
9740;BME280;4909;42.680;26.324;2022-09-20T08:46:13;98531.91;;;23.65;30.48
9740;BME280;4909;42.680;26.324;2022-09-20T08:48:40;98533.03;;;23.90;30.57
9740;BME280;4909;42.680;26.324;2022-09-20T08:51:11;98529.19;;;23.65;30.36
9740;BME280;4909;42.680;26.324;2022-09-20T08:53:44;98530.19;;;23.37;30.09
9740;BME280;4909;42.680;26.324;2022-09-20T08:56:12;98523.66;;;23.30;30.14
9740;BME280;4909;42.680;26.324;2022-09-20T08:58:39;98525.75;;;23.18;31.10
9740;BME280;4909;42.680;26.324;2022-09-20T09:01:06;98532.09;;;23.27;31.13
9740;BME280;4909;42.680;26.324;2022-09-20T09:03:36;98523.66;;;23.30;31.37
9740;BME280;4909;42.680;26.324;2022-09-20T09:06:04;98530.44;;;23.44;31.28
9740;BME280;4909;42.680;26.324;2022-09-20T09:08:35;98529.84;;;23.22;30.68
9740;BME280;4909;42.680;26.324;2022-09-20T09:11:04;98514.28;;;22.50;32.17
9740;BME280;4909;42.680;26.324;2022-09-20T09:13:38;98524.69;;;22.45;33.12
9740;BME280;4909;42.680;26.324;2022-09-20T09:16:11;98528.53;;;22.04;32.56
9740;BME280;4909;42.680;26.324;2022-09-20T09:18:41;98514.91;;;22.06;32.70
9740;BME280;4909;42.680;26.324;2022-09-20T09:21:15;98538.25;;;21.97;33.01
9740;BME280;4909;42.680;26.324;2022-09-20T09:23:49;98515.97;;;21.55;34.26
9740;BME280;4909;42.680;26.324;2022-09-20T09:26:19;98532.09;;;21.27;35.30
9740;BME280;4909;42.680;26.324;2022-09-20T09:28:46;98528.50;;;21.76;34.32
9740;BME280;4909;42.680;26.324;2022-09-20T09:31:22;98522.25;;;21.75;33.34
9740;BME280;4909;42.680;26.324;2022-09-20T09:33:50;98516.72;;;21.67;34.55
9740;BME280;4909;42.680;26.324;2022-09-20T09:36:21;98513.78;;;21.30;34.69
9740;BME280;4909;42.680;26.324;2022-09-20T09:39:14;98500.28;;;20.60;35.32
9740;BME280;4909;42.680;26.324;2022-09-20T09:41:41;98518.97;;;20.52;36.25
9740;BME280;4909;42.680;26.324;2022-09-20T09:44:19;98526.28;;;20.91;36.51
9740;BME280;4909;42.680;26.324;2022-09-20T09:46:46;98515.22;;;21.24;36.36
9740;BME280;4909;42.680;26.324;2022-09-20T09:49:16;98510.13;;;21.41;34.30
9740;BME280;4909;42.680;26.324;2022-09-20T09:52:00;98510.59;;;21.75;35.59
9740;BME280;4909;42.680;26.324;2022-09-20T09:54:31;98515.72;;;21.87;34.87
9740;BME280;4909;42.680;26.324;2022-09-20T09:57:10;98509.59;;;21.66;34.60
9740;BME280;4909;42.680;26.324;2022-09-20T09:59:56;98516.97;;;21.05;35.08
9740;BME280;4909;42.680;26.324;2022-09-20T10:02:45;98511.56;;;20.74;34.74
9740;BME280;4909;42.680;26.324;2022-09-20T10:05:19;98516.38;;;20.71;37.04
9740;BME280;4909;42.680;26.324;2022-09-20T10:07:51;98515.41;;;21.12;35.61
9740;BME280;4909;42.680;26.324;2022-09-20T10:10:28;98504.31;;;21.55;36.17
9740;BME280;4909;42.680;26.324;2022-09-20T10:13:09;98508.06;;;21.92;35.20
9740;BME280;4909;42.680;26.324;2022-09-20T10:15:44;98510.16;;;21.69;34.09
9740;BME280;4909;42.680;26.324;2022-09-20T10:18:29;98510.88;;;21.72;34.03
9740;BME280;4909;42.680;26.324;2022-09-20T10:21:13;98498.00;;;21.35;34.08
9740;BME280;4909;42.680;26.324;2022-09-20T10:23:53;98508.81;;;21.35;33.78
9740;BME280;4909;42.680;26.324;2022-09-20T10:26:43;98501.97;;;21.21;34.76
9740;BME280;4909;42.680;26.324;2022-09-20T10:29:22;98503.19;;;21.57;34.28
9740;BME280;4909;42.680;26.324;2022-09-20T10:32:02;98505.16;;;21.65;33.83
9740;BME280;4909;42.680;26.324;2022-09-20T10:37:32;98499.34;;;21.69;34.55
9740;BME280;4909;42.680;26.324;2022-09-20T10:40:07;98490.81;;;21.74;34.66
9740;BME280;4909;42.680;26.324;2022-09-20T10:42:44;98494.41;;;21.94;34.64
9740;BME280;4909;42.680;26.324;2022-09-20T10:45:35;98492.44;;;21.96;34.84
9740;BME280;4909;42.680;26.324;2022-09-20T10:48:10;98493.69;;;21.82;33.85
9740;BME280;4909;42.680;26.324;2022-09-20T10:50:42;98496.19;;;21.55;34.09
9740;BME280;4909;42.680;26.324;2022-09-20T10:53:21;98487.50;;;21.32;34.04
9740;BME280;4909;42.680;26.324;2022-09-20T10:56:01;98481.28;;;21.01;35.11
9740;BME280;4909;42.680;26.324;2022-09-20T10:59:13;98481.94;;;20.54;36.74
9740;BME280;4909;42.680;26.324;2022-09-20T11:01:57;98483.13;;;20.91;35.29
9740;BME280;4909;42.680;26.324;2022-09-20T11:04:55;98478.75;;;21.09;36.41
9740;BME280;4909;42.680;26.324;2022-09-20T11:07:38;98487.53;;;21.42;35.03
9740;BME280;4909;42.680;26.324;2022-09-20T11:10:15;98475.00;;;21.31;34.46
9740;BME280;4909;42.680;26.324;2022-09-20T11:12:48;98484.38;;;21.27;34.64
9740;BME280;4909;42.680;26.324;2022-09-20T11:15:22;98486.41;;;21.44;33.73
9740;BME280;4909;42.680;26.324;2022-09-20T11:17:55;98473.16;;;21.41;34.17
9740;BME280;4909;42.680;26.324;2022-09-20T11:20:27;98482.00;;;21.43;33.98
9740;BME280;4909;42.680;26.324;2022-09-20T11:22:58;98481.66;;;21.27;34.97
9740;BME280;4909;42.680;26.324;2022-09-20T11:25:32;98489.88;;;21.16;34.66
9740;BME280;4909;42.680;26.324;2022-09-20T11:28:02;98477.78;;;21.10;35.04
9740;BME280;4909;42.680;26.324;2022-09-20T11:30:39;98467.22;;;20.98;34.71
9740;BME280;4909;42.680;26.324;2022-09-20T11:33:15;98475.19;;;20.99;34.46
9740;BME280;4909;42.680;26.324;2022-09-20T11:35:47;98477.97;;;20.88;34.36
9740;BME280;4909;42.680;26.324;2022-09-20T11:38:18;98475.41;;;20.87;34.82
9740;BME280;4909;42.680;26.324;2022-09-20T11:40:52;98468.09;;;20.68;35.10
9740;BME280;4909;42.680;26.324;2022-09-20T11:43:21;98475.53;;;20.75;34.96
9740;BME280;4909;42.680;26.324;2022-09-20T11:45:59;98470.66;;;20.69;35.50
9740;BME280;4909;42.680;26.324;2022-09-20T11:48:29;98468.38;;;20.65;35.80
9740;BME280;4909;42.680;26.324;2022-09-20T11:51:18;98474.94;;;20.72;35.34
9740;BME280;4909;42.680;26.324;2022-09-20T11:53:59;98470.56;;;20.50;35.79
9740;BME280;4909;42.680;26.324;2022-09-20T11:56:31;98474.28;;;20.59;36.13
9740;BME280;4909;42.680;26.324;2022-09-20T11:59:02;98463.25;;;20.62;36.03
9740;BME280;4909;42.680;26.324;2022-09-20T12:01:33;98466.41;;;20.67;35.32
9740;BME280;4909;42.680;26.324;2022-09-20T12:04:04;98472.72;;;20.56;36.13
9740;BME280;4909;42.680;26.324;2022-09-20T12:06:34;98480.50;;;20.80;36.02
9740;BME280;4909;42.680;26.324;2022-09-20T12:09:04;98475.97;;;20.50;36.49
9740;BME280;4909;42.680;26.324;2022-09-20T12:11:34;98458.88;;;20.40;36.26
9740;BME280;4909;42.680;26.324;2022-09-20T12:14:05;98482.28;;;20.39;36.27
9740;BME280;4909;42.680;26.324;2022-09-20T12:16:39;98456.66;;;20.04;36.37
9740;BME280;4909;42.680;26.324;2022-09-20T12:19:09;98445.72;;;19.64;37.04
9740;BME280;4909;42.680;26.324;2022-09-20T12:22:15;98467.69;;;19.80;38.07
9740;BME280;4909;42.680;26.324;2022-09-20T12:24:43;98470.31;;;19.91;37.34
9740;BME280;4909;42.680;26.324;2022-09-20T12:27:41;98461.34;;;19.90;37.93
9740;BME280;4909;42.680;26.324;2022-09-20T12:30:17;98443.88;;;19.85;39.57
9740;BME280;4909;42.680;26.324;2022-09-20T12:32:57;98466.56;;;20.03;37.58
9740;BME280;4909;42.680;26.324;2022-09-20T12:35:59;98472.72;;;20.15;37.34
9740;BME280;4909;42.680;26.324;2022-09-20T12:38:58;98451.19;;;19.94;37.04
9740;BME280;4909;42.680;26.324;2022-09-20T12:41:26;98477.88;;;19.97;37.27
9740;BME280;4909;42.680;26.324;2022-09-20T12:44:02;98473.25;;;19.88;37.20
9740;BME280;4909;42.680;26.324;2022-09-20T12:46:36;98467.75;;;20.10;37.73
9740;BME280;4909;42.680;26.324;2022-09-20T12:49:32;98468.00;;;20.07;37.55
9740;BME280;4909;42.680;26.324;2022-09-20T12:52:47;98472.66;;;20.05;38.09
9740;BME280;4909;42.680;26.324;2022-09-20T12:55:28;98454.84;;;19.72;36.71
9740;BME280;4909;42.680;26.324;2022-09-20T12:57:59;98456.75;;;19.81;38.03
9740;BME280;4909;42.680;26.324;2022-09-20T13:00:33;98455.38;;;19.87;37.88
9740;BME280;4909;42.680;26.324;2022-09-20T13:03:10;98455.84;;;19.92;37.96
9740;BME280;4909;42.680;26.324;2022-09-20T13:05:40;98465.25;;;19.98;38.15
9740;BME280;4909;42.680;26.324;2022-09-20T13:08:13;98469.66;;;19.99;37.89
9740;BME280;4909;42.680;26.324;2022-09-20T13:10:46;98443.69;;;19.77;37.74
9740;BME280;4909;42.680;26.324;2022-09-20T13:13:25;98455.91;;;19.81;37.94
9740;BME280;4909;42.680;26.324;2022-09-20T13:15:54;98438.88;;;19.60;38.90
9740;BME280;4909;42.680;26.324;2022-09-20T13:18:23;98446.06;;;19.91;37.96
9740;BME280;4909;42.680;26.324;2022-09-20T13:20:55;98432.53;;;19.81;38.08
9740;BME280;4909;42.680;26.324;2022-09-20T13:23:26;98460.84;;;19.96;38.45
9740;BME280;4909;42.680;26.324;2022-09-20T13:25:56;98445.59;;;20.07;39.40
9740;BME280;4909;42.680;26.324;2022-09-20T13:28:32;98457.03;;;20.20;38.07
9740;BME280;4909;42.680;26.324;2022-09-20T13:31:26;98456.56;;;20.15;36.82
9740;BME280;4909;42.680;26.324;2022-09-20T13:33:54;98455.44;;;19.76;37.48
9740;BME280;4909;42.680;26.324;2022-09-20T13:36:25;98447.25;;;19.77;38.25
9740;BME280;4909;42.680;26.324;2022-09-20T13:38:55;98454.84;;;19.72;37.26
9740;BME280;4909;42.680;26.324;2022-09-20T13:41:25;98437.59;;;19.75;38.47
9740;BME280;4909;42.680;26.324;2022-09-20T13:43:53;98456.56;;;19.73;37.76
9740;BME280;4909;42.680;26.324;2022-09-20T13:46:23;98440.50;;;19.51;38.13
9740;BME280;4909;42.680;26.324;2022-09-20T13:48:58;98451.09;;;19.64;37.97
9740;BME280;4909;42.680;26.324;2022-09-20T13:51:36;98444.59;;;19.66;38.21
9740;BME280;4909;42.680;26.324;2022-09-20T13:54:23;98459.28;;;19.62;38.17
9740;BME280;4909;42.680;26.324;2022-09-20T13:56:52;98447.03;;;19.69;37.92
9740;BME280;4909;42.680;26.324;2022-09-20T13:59:20;98438.16;;;19.58;38.14
9740;BME280;4909;42.680;26.324;2022-09-20T14:01:50;98444.53;;;19.77;37.50
9740;BME280;4909;42.680;26.324;2022-09-20T14:04:19;98435.72;;;19.55;37.07
9740;BME280;4909;42.680;26.324;2022-09-20T14:06:49;98434.16;;;19.41;37.58
9740;BME280;4909;42.680;26.324;2022-09-20T14:09:22;98460.94;;;19.53;38.31
9740;BME280;4909;42.680;26.324;2022-09-20T14:11:51;98465.34;;;19.43;37.38
9740;BME280;4909;42.680;26.324;2022-09-20T14:14:19;98462.44;;;19.35;37.85
9740;BME280;4909;42.680;26.324;2022-09-20T14:16:47;98467.09;;;19.44;38.21
9740;BME280;4909;42.680;26.324;2022-09-20T14:19:17;98438.06;;;19.48;36.81
9740;BME280;4909;42.680;26.324;2022-09-20T14:21:48;98458.34;;;19.52;37.73
9740;BME280;4909;42.680;26.324;2022-09-20T14:24:28;98468.88;;;19.55;36.92
9740;BME280;4909;42.680;26.324;2022-09-20T14:27:11;98462.72;;;19.64;36.96
9740;BME280;4909;42.680;26.324;2022-09-20T14:29:40;98462.09;;;19.61;36.54
9740;BME280;4909;42.680;26.324;2022-09-20T14:32:22;98477.63;;;19.36;36.26
9740;BME280;4909;42.680;26.324;2022-09-20T14:34:58;98463.31;;;19.25;36.46